sensor_id;sensor_type;location;lat;lon;timestamp;P1;durP1;ratioP1;P2;durP2;ratioP2
38113;SDS011;23926;53.222;6.354;2024-01-25T00:01:06;19.05;;;4.75;;
38113;SDS011;23926;53.222;6.354;2024-01-25T00:03:32;16.33;;;5.03;;
38113;SDS011;23926;53.222;6.354;2024-01-25T00:05:57;20.60;;;6.05;;
38113;SDS011;23926;53.222;6.354;2024-01-25T00:08:23;29.63;;;5.80;;
38113;SDS011;23926;53.222;6.354;2024-01-25T00:10:48;14.88;;;4.80;;
38113;SDS011;23926;53.222;6.354;2024-01-25T00:13:13;25.92;;;6.30;;
38113;SDS011;23926;53.222;6.354;2024-01-25T00:15:39;36.22;;;6.28;;
38113;SDS011;23926;53.222;6.354;2024-01-25T00:18:04;29.00;;;6.72;;
38113;SDS011;23926;53.222;6.354;2024-01-25T00:20:29;26.45;;;7.10;;
38113;SDS011;23926;53.222;6.354;2024-01-25T00:22:55;25.90;;;7.55;;
38113;SDS011;23926;53.222;6.354;2024-01-25T00:25:20;33.10;;;7.93;;
38113;SDS011;23926;53.222;6.354;2024-01-25T00:27:46;27.90;;;7.32;;
38113;SDS011;23926;53.222;6.354;2024-01-25T00:30:12;23.85;;;5.97;;
38113;SDS011;23926;53.222;6.354;2024-01-25T00:32:38;14.02;;;4.20;;
38113;SDS011;23926;53.222;6.354;2024-01-25T00:35:03;42.47;;;7.30;;
38113;SDS011;23926;53.222;6.354;2024-01-25T00:37:29;26.58;;;6.82;;
38113;SDS011;23926;53.222;6.354;2024-01-25T00:39:55;20.45;;;6.00;;
38113;SDS011;23926;53.222;6.354;2024-01-25T00:42:21;27.67;;;7.07;;
38113;SDS011;23926;53.222;6.354;2024-01-25T00:44:47;23.77;;;6.05;;
38113;SDS011;23926;53.222;6.354;2024-01-25T00:47:13;23.33;;;6.13;;
38113;SDS011;23926;53.222;6.354;2024-01-25T00:49:39;24.63;;;5.38;;
38113;SDS011;23926;53.222;6.354;2024-01-25T00:52:05;22.42;;;5.97;;
38113;SDS011;23926;53.222;6.354;2024-01-25T00:54:30;22.92;;;5.78;;
38113;SDS011;23926;53.222;6.354;2024-01-25T00:56:56;24.15;;;6.88;;
38113;SDS011;23926;53.222;6.354;2024-01-25T00:59:22;18.55;;;5.22;;
38113;SDS011;23926;53.222;6.354;2024-01-25T01:01:48;38.90;;;7.43;;
38113;SDS011;23926;53.222;6.354;2024-01-25T01:04:16;16.52;;;6.00;;
38113;SDS011;23926;53.222;6.354;2024-01-25T01:06:42;24.25;;;6.68;;
38113;SDS011;23926;53.222;6.354;2024-01-25T01:09:08;25.20;;;6.28;;
38113;SDS011;23926;53.222;6.354;2024-01-25T01:11:33;24.70;;;5.43;;
38113;SDS011;23926;53.222;6.354;2024-01-25T01:13:59;16.90;;;6.03;;
38113;SDS011;23926;53.222;6.354;2024-01-25T01:16:24;21.08;;;6.10;;
38113;SDS011;23926;53.222;6.354;2024-01-25T01:18:50;32.72;;;7.22;;
38113;SDS011;23926;53.222;6.354;2024-01-25T01:21:16;28.88;;;5.75;;
38113;SDS011;23926;53.222;6.354;2024-01-25T01:23:41;16.30;;;5.43;;
38113;SDS011;23926;53.222;6.354;2024-01-25T01:26:07;19.98;;;5.93;;
38113;SDS011;23926;53.222;6.354;2024-01-25T01:28:32;25.58;;;7.90;;
38113;SDS011;23926;53.222;6.354;2024-01-25T01:30:58;27.08;;;7.45;;
38113;SDS011;23926;53.222;6.354;2024-01-25T01:33:23;17.88;;;5.38;;
38113;SDS011;23926;53.222;6.354;2024-01-25T01:35:48;18.17;;;4.13;;
38113;SDS011;23926;53.222;6.354;2024-01-25T01:38:14;23.35;;;5.78;;
38113;SDS011;23926;53.222;6.354;2024-01-25T01:40:39;13.73;;;6.43;;
38113;SDS011;23926;53.222;6.354;2024-01-25T01:43:04;25.95;;;6.57;;
38113;SDS011;23926;53.222;6.354;2024-01-25T01:45:30;24.83;;;6.07;;
38113;SDS011;23926;53.222;6.354;2024-01-25T01:47:55;15.57;;;6.82;;
38113;SDS011;23926;53.222;6.354;2024-01-25T01:50:22;15.43;;;5.72;;
38113;SDS011;23926;53.222;6.354;2024-01-25T01:52:48;29.65;;;6.90;;
38113;SDS011;23926;53.222;6.354;2024-01-25T01:55:15;25.13;;;6.55;;
38113;SDS011;23926;53.222;6.354;2024-01-25T01:57:44;24.67;;;5.80;;
38113;SDS011;23926;53.222;6.354;2024-01-25T02:00:11;19.60;;;6.75;;
38113;SDS011;23926;53.222;6.354;2024-01-25T02:02:41;31.83;;;6.93;;
38113;SDS011;23926;53.222;6.354;2024-01-25T02:05:07;18.02;;;6.57;;
38113;SDS011;23926;53.222;6.354;2024-01-25T02:07:33;30.13;;;7.63;;
38113;SDS011;23926;53.222;6.354;2024-01-25T02:09:59;19.13;;;8.77;;
38113;SDS011;23926;53.222;6.354;2024-01-25T02:12:24;39.20;;;13.38;;
38113;SDS011;23926;53.222;6.354;2024-01-25T02:14:49;24.98;;;7.40;;
38113;SDS011;23926;53.222;6.354;2024-01-25T02:17:15;34.95;;;9.98;;
38113;SDS011;23926;53.222;6.354;2024-01-25T02:19:40;18.73;;;9.77;;
38113;SDS011;23926;53.222;6.354;2024-01-25T02:22:06;26.42;;;14.38;;
38113;SDS011;23926;53.222;6.354;2024-01-25T02:24:31;28.58;;;7.35;;
38113;SDS011;23926;53.222;6.354;2024-01-25T02:26:57;28.50;;;11.32;;
38113;SDS011;23926;53.222;6.354;2024-01-25T02:29:22;23.05;;;10.00;;
38113;SDS011;23926;53.222;6.354;2024-01-25T02:31:48;25.48;;;11.18;;
38113;SDS011;23926;53.222;6.354;2024-01-25T02:34:13;28.73;;;18.77;;
38113;SDS011;23926;53.222;6.354;2024-01-25T02:36:38;32.90;;;13.50;;
38113;SDS011;23926;53.222;6.354;2024-01-25T02:39:04;39.22;;;14.02;;
38113;SDS011;23926;53.222;6.354;2024-01-25T02:41:30;31.98;;;18.70;;
38113;SDS011;23926;53.222;6.354;2024-01-25T02:43:56;27.65;;;14.88;;
38113;SDS011;23926;53.222;6.354;2024-01-25T02:46:22;23.45;;;17.08;;
38113;SDS011;23926;53.222;6.354;2024-01-25T02:48:48;27.65;;;15.20;;
38113;SDS011;23926;53.222;6.354;2024-01-25T02:51:13;34.63;;;22.27;;
38113;SDS011;23926;53.222;6.354;2024-01-25T02:53:40;32.97;;;18.35;;
38113;SDS011;23926;53.222;6.354;2024-01-25T02:56:05;36.83;;;25.48;;
38113;SDS011;23926;53.222;6.354;2024-01-25T02:58:31;39.40;;;19.23;;
38113;SDS011;23926;53.222;6.354;2024-01-25T03:00:56;33.13;;;17.25;;
38113;SDS011;23926;53.222;6.354;2024-01-25T03:03:22;26.67;;;14.32;;
38113;SDS011;23926;53.222;6.354;2024-01-25T03:05:48;20.83;;;15.50;;
38113;SDS011;23926;53.222;6.354;2024-01-25T03:08:14;55.00;;;17.63;;
38113;SDS011;23926;53.222;6.354;2024-01-25T03:10:39;34.22;;;19.02;;
38113;SDS011;23926;53.222;6.354;2024-01-25T03:13:05;35.35;;;18.75;;
38113;SDS011;23926;53.222;6.354;2024-01-25T03:15:30;30.38;;;17.75;;
38113;SDS011;23926;53.222;6.354;2024-01-25T03:17:56;43.08;;;38.90;;
38113;SDS011;23926;53.222;6.354;2024-01-25T03:20:21;36.30;;;27.65;;
38113;SDS011;23926;53.222;6.354;2024-01-25T03:22:47;34.97;;;31.15;;
38113;SDS011;23926;53.222;6.354;2024-01-25T03:25:12;42.03;;;22.83;;
38113;SDS011;23926;53.222;6.354;2024-01-25T03:27:37;44.58;;;29.77;;
38113;SDS011;23926;53.222;6.354;2024-01-25T03:30:03;31.52;;;26.45;;
38113;SDS011;23926;53.222;6.354;2024-01-25T03:32:31;38.10;;;28.52;;
38113;SDS011;23926;53.222;6.354;2024-01-25T03:34:56;45.28;;;26.00;;
38113;SDS011;23926;53.222;6.354;2024-01-25T03:37:21;30.60;;;26.27;;
38113;SDS011;23926;53.222;6.354;2024-01-25T03:39:47;49.05;;;30.40;;
38113;SDS011;23926;53.222;6.354;2024-01-25T03:42:12;55.53;;;34.33;;
38113;SDS011;23926;53.222;6.354;2024-01-25T03:44:37;48.30;;;31.98;;
38113;SDS011;23926;53.222;6.354;2024-01-25T03:47:03;61.08;;;32.15;;
38113;SDS011;23926;53.222;6.354;2024-01-25T03:49:28;35.22;;;28.42;;
38113;SDS011;23926;53.222;6.354;2024-01-25T03:51:54;49.53;;;41.17;;
38113;SDS011;23926;53.222;6.354;2024-01-25T03:54:19;39.72;;;35.70;;
38113;SDS011;23926;53.222;6.354;2024-01-25T03:56:45;30.95;;;27.85;;
38113;SDS011;23926;53.222;6.354;2024-01-25T03:59:10;34.25;;;22.50;;
38113;SDS011;23926;53.222;6.354;2024-01-25T04:01:42;29.45;;;25.73;;
38113;SDS011;23926;53.222;6.354;2024-01-25T04:04:12;27.73;;;22.33;;
38113;SDS011;23926;53.222;6.354;2024-01-25T04:06:43;36.53;;;31.23;;
38113;SDS011;23926;53.222;6.354;2024-01-25T04:09:11;33.03;;;29.60;;
38113;SDS011;23926;53.222;6.354;2024-01-25T04:11:37;33.17;;;29.77;;
38113;SDS011;23926;53.222;6.354;2024-01-25T04:14:03;31.85;;;26.80;;
38113;SDS011;23926;53.222;6.354;2024-01-25T04:16:29;34.83;;;31.30;;
38113;SDS011;23926;53.222;6.354;2024-01-25T04:18:55;32.80;;;29.70;;
38113;SDS011;23926;53.222;6.354;2024-01-25T04:21:20;40.30;;;35.83;;
38113;SDS011;23926;53.222;6.354;2024-01-25T04:23:46;39.92;;;29.58;;
38113;SDS011;23926;53.222;6.354;2024-01-25T04:26:11;40.30;;;36.60;;
38113;SDS011;23926;53.222;6.354;2024-01-25T04:28:36;26.23;;;22.30;;
38113;SDS011;23926;53.222;6.354;2024-01-25T04:31:02;37.63;;;27.05;;
38113;SDS011;23926;53.222;6.354;2024-01-25T04:33:28;39.70;;;35.90;;
38113;SDS011;23926;53.222;6.354;2024-01-25T04:35:54;52.97;;;48.25;;
38113;SDS011;23926;53.222;6.354;2024-01-25T04:38:20;57.17;;;51.85;;
38113;SDS011;23926;53.222;6.354;2024-01-25T04:40:46;61.53;;;55.40;;
38113;SDS011;23926;53.222;6.354;2024-01-25T04:43:11;52.00;;;47.83;;
38113;SDS011;23926;53.222;6.354;2024-01-25T04:45:37;44.60;;;40.40;;
38113;SDS011;23926;53.222;6.354;2024-01-25T04:48:03;50.40;;;40.28;;
38113;SDS011;23926;53.222;6.354;2024-01-25T04:50:29;47.15;;;42.85;;
38113;SDS011;23926;53.222;6.354;2024-01-25T04:52:54;39.63;;;29.20;;
38113;SDS011;23926;53.222;6.354;2024-01-25T04:55:20;45.63;;;32.50;;
38113;SDS011;23926;53.222;6.354;2024-01-25T04:57:45;40.17;;;33.55;;
38113;SDS011;23926;53.222;6.354;2024-01-25T05:00:13;33.80;;;27.58;;
38113;SDS011;23926;53.222;6.354;2024-01-25T05:02:39;41.88;;;36.58;;
38113;SDS011;23926;53.222;6.354;2024-01-25T05:05:04;38.00;;;31.38;;
38113;SDS011;23926;53.222;6.354;2024-01-25T05:07:30;42.33;;;31.23;;
38113;SDS011;23926;53.222;6.354;2024-01-25T05:09:55;31.88;;;28.05;;
38113;SDS011;23926;53.222;6.354;2024-01-25T05:12:20;33.85;;;30.67;;
38113;SDS011;23926;53.222;6.354;2024-01-25T05:14:46;38.95;;;35.15;;
38113;SDS011;23926;53.222;6.354;2024-01-25T05:17:11;47.60;;;40.85;;
38113;SDS011;23926;53.222;6.354;2024-01-25T05:19:36;39.30;;;33.92;;
38113;SDS011;23926;53.222;6.354;2024-01-25T05:22:02;51.75;;;47.08;;
38113;SDS011;23926;53.222;6.354;2024-01-25T05:24:31;45.47;;;41.35;;
38113;SDS011;23926;53.222;6.354;2024-01-25T05:26:57;51.88;;;44.53;;
38113;SDS011;23926;53.222;6.354;2024-01-25T05:29:22;43.90;;;39.95;;
38113;SDS011;23926;53.222;6.354;2024-01-25T05:31:48;54.00;;;48.72;;
38113;SDS011;23926;53.222;6.354;2024-01-25T05:34:14;43.28;;;39.00;;
38113;SDS011;23926;53.222;6.354;2024-01-25T05:36:40;52.35;;;48.17;;
38113;SDS011;23926;53.222;6.354;2024-01-25T05:39:06;48.88;;;43.30;;
38113;SDS011;23926;53.222;6.354;2024-01-25T05:41:32;71.65;;;48.15;;
38113;SDS011;23926;53.222;6.354;2024-01-25T05:43:58;58.72;;;53.45;;
38113;SDS011;23926;53.222;6.354;2024-01-25T05:46:24;44.22;;;39.75;;
38113;SDS011;23926;53.222;6.354;2024-01-25T05:48:50;52.13;;;41.17;;
38113;SDS011;23926;53.222;6.354;2024-01-25T05:51:15;48.10;;;43.08;;
38113;SDS011;23926;53.222;6.354;2024-01-25T05:53:40;52.30;;;46.78;;
38113;SDS011;23926;53.222;6.354;2024-01-25T05:56:06;48.58;;;44.78;;
38113;SDS011;23926;53.222;6.354;2024-01-25T05:58:31;50.75;;;45.42;;
38113;SDS011;23926;53.222;6.354;2024-01-25T06:00:57;54.38;;;43.90;;
38113;SDS011;23926;53.222;6.354;2024-01-25T06:03:22;53.65;;;49.22;;
38113;SDS011;23926;53.222;6.354;2024-01-25T06:05:49;47.40;;;43.20;;
38113;SDS011;23926;53.222;6.354;2024-01-25T06:08:14;45.35;;;41.00;;
38113;SDS011;23926;53.222;6.354;2024-01-25T06:10:40;47.00;;;41.53;;
38113;SDS011;23926;53.222;6.354;2024-01-25T06:13:05;49.53;;;44.00;;
38113;SDS011;23926;53.222;6.354;2024-01-25T06:15:31;35.33;;;32.58;;
38113;SDS011;23926;53.222;6.354;2024-01-25T06:17:56;43.03;;;39.22;;
38113;SDS011;23926;53.222;6.354;2024-01-25T06:20:22;46.90;;;39.40;;
38113;SDS011;23926;53.222;6.354;2024-01-25T06:22:47;60.22;;;55.58;;
38113;SDS011;23926;53.222;6.354;2024-01-25T06:25:13;62.17;;;56.33;;
38113;SDS011;23926;53.222;6.354;2024-01-25T06:27:39;59.70;;;54.83;;
38113;SDS011;23926;53.222;6.354;2024-01-25T06:30:04;55.63;;;50.30;;
38113;SDS011;23926;53.222;6.354;2024-01-25T06:32:30;55.53;;;49.13;;
38113;SDS011;23926;53.222;6.354;2024-01-25T06:34:56;35.30;;;31.98;;
38113;SDS011;23926;53.222;6.354;2024-01-25T06:37:21;36.97;;;34.33;;
38113;SDS011;23926;53.222;6.354;2024-01-25T06:39:47;21.80;;;19.90;;
38113;SDS011;23926;53.222;6.354;2024-01-25T06:42:12;19.27;;;9.13;;
38113;SDS011;23926;53.222;6.354;2024-01-25T06:44:38;23.35;;;20.35;;
38113;SDS011;23926;53.222;6.354;2024-01-25T06:47:03;32.58;;;17.33;;
38113;SDS011;23926;53.222;6.354;2024-01-25T06:49:29;30.42;;;25.77;;
38113;SDS011;23926;53.222;6.354;2024-01-25T06:51:54;29.23;;;24.13;;
38113;SDS011;23926;53.222;6.354;2024-01-25T06:54:19;34.72;;;17.10;;
38113;SDS011;23926;53.222;6.354;2024-01-25T06:56:45;33.80;;;30.60;;
38113;SDS011;23926;53.222;6.354;2024-01-25T06:59:10;32.67;;;10.05;;
38113;SDS011;23926;53.222;6.354;2024-01-25T07:01:36;21.73;;;14.05;;
38113;SDS011;23926;53.222;6.354;2024-01-25T07:04:01;21.52;;;10.20;;
38113;SDS011;23926;53.222;6.354;2024-01-25T07:06:28;31.02;;;11.02;;
38113;SDS011;23926;53.222;6.354;2024-01-25T07:08:54;17.70;;;10.82;;
38113;SDS011;23926;53.222;6.354;2024-01-25T07:11:19;8.65;;;7.13;;
38113;SDS011;23926;53.222;6.354;2024-01-25T07:13:44;8.77;;;6.00;;
38113;SDS011;23926;53.222;6.354;2024-01-25T07:16:10;20.90;;;6.88;;
38113;SDS011;23926;53.222;6.354;2024-01-25T07:18:35;13.82;;;5.40;;
38113;SDS011;23926;53.222;6.354;2024-01-25T07:21:01;17.73;;;4.55;;
38113;SDS011;23926;53.222;6.354;2024-01-25T07:23:28;17.63;;;7.00;;
38113;SDS011;23926;53.222;6.354;2024-01-25T07:25:55;15.93;;;6.07;;
38113;SDS011;23926;53.222;6.354;2024-01-25T07:28:20;17.23;;;7.70;;
38113;SDS011;23926;53.222;6.354;2024-01-25T07:30:49;17.25;;;9.52;;
38113;SDS011;23926;53.222;6.354;2024-01-25T07:33:15;12.88;;;11.57;;
38113;SDS011;23926;53.222;6.354;2024-01-25T07:35:41;28.15;;;9.60;;
38113;SDS011;23926;53.222;6.354;2024-01-25T07:38:10;33.33;;;17.60;;
38113;SDS011;23926;53.222;6.354;2024-01-25T07:40:36;22.30;;;14.68;;
38113;SDS011;23926;53.222;6.354;2024-01-25T07:43:02;18.80;;;15.82;;
38113;SDS011;23926;53.222;6.354;2024-01-25T07:45:28;27.60;;;24.95;;
38113;SDS011;23926;53.222;6.354;2024-01-25T07:47:53;47.42;;;37.35;;
38113;SDS011;23926;53.222;6.354;2024-01-25T07:50:18;57.90;;;52.20;;
38113;SDS011;23926;53.222;6.354;2024-01-25T07:52:44;56.30;;;50.80;;
38113;SDS011;23926;53.222;6.354;2024-01-25T07:55:10;56.58;;;52.30;;
38113;SDS011;23926;53.222;6.354;2024-01-25T07:57:35;61.92;;;56.97;;
38113;SDS011;23926;53.222;6.354;2024-01-25T08:00:01;72.57;;;67.28;;
38113;SDS011;23926;53.222;6.354;2024-01-25T08:02:26;68.35;;;62.15;;
38113;SDS011;23926;53.222;6.354;2024-01-25T08:04:52;77.75;;;71.45;;
38113;SDS011;23926;53.222;6.354;2024-01-25T08:07:19;80.90;;;74.78;;
38113;SDS011;23926;53.222;6.354;2024-01-25T08:09:45;73.75;;;68.55;;
38113;SDS011;23926;53.222;6.354;2024-01-25T08:12:10;78.72;;;71.80;;
38113;SDS011;23926;53.222;6.354;2024-01-25T08:14:36;83.82;;;76.97;;
38113;SDS011;23926;53.222;6.354;2024-01-25T08:17:01;104.65;;;96.15;;
38113;SDS011;23926;53.222;6.354;2024-01-25T08:19:27;114.45;;;105.57;;
38113;SDS011;23926;53.222;6.354;2024-01-25T08:21:52;77.30;;;72.38;;
38113;SDS011;23926;53.222;6.354;2024-01-25T08:24:18;76.90;;;68.95;;
38113;SDS011;23926;53.222;6.354;2024-01-25T08:26:43;88.88;;;82.60;;
38113;SDS011;23926;53.222;6.354;2024-01-25T08:29:08;87.65;;;79.43;;
38113;SDS011;23926;53.222;6.354;2024-01-25T08:31:34;113.18;;;103.75;;
38113;SDS011;23926;53.222;6.354;2024-01-25T08:33:59;98.38;;;90.18;;
38113;SDS011;23926;53.222;6.354;2024-01-25T08:36:25;103.53;;;95.72;;
38113;SDS011;23926;53.222;6.354;2024-01-25T08:38:50;99.22;;;90.80;;
38113;SDS011;23926;53.222;6.354;2024-01-25T08:41:15;96.70;;;89.00;;
38113;SDS011;23926;53.222;6.354;2024-01-25T08:43:41;92.00;;;85.13;;
38113;SDS011;23926;53.222;6.354;2024-01-25T08:46:07;94.18;;;87.07;;
38113;SDS011;23926;53.222;6.354;2024-01-25T08:48:33;111.00;;;102.28;;
38113;SDS011;23926;53.222;6.354;2024-01-25T08:50:58;108.78;;;99.15;;
38113;SDS011;23926;53.222;6.354;2024-01-25T08:53:24;104.07;;;95.45;;
38113;SDS011;23926;53.222;6.354;2024-01-25T08:55:52;100.72;;;93.00;;
38113;SDS011;23926;53.222;6.354;2024-01-25T08:58:18;86.78;;;79.68;;
38113;SDS011;23926;53.222;6.354;2024-01-25T09:00:45;103.43;;;94.75;;
38113;SDS011;23926;53.222;6.354;2024-01-25T09:03:10;101.47;;;94.38;;
38113;SDS011;23926;53.222;6.354;2024-01-25T09:05:35;93.40;;;86.05;;
38113;SDS011;23926;53.222;6.354;2024-01-25T09:08:04;100.70;;;93.10;;
38113;SDS011;23926;53.222;6.354;2024-01-25T09:10:30;99.82;;;91.25;;
38113;SDS011;23926;53.222;6.354;2024-01-25T09:12:55;107.57;;;98.50;;
38113;SDS011;23926;53.222;6.354;2024-01-25T09:15:20;108.90;;;101.20;;
38113;SDS011;23926;53.222;6.354;2024-01-25T09:17:46;105.30;;;96.88;;
38113;SDS011;23926;53.222;6.354;2024-01-25T09:20:11;111.72;;;103.10;;
38113;SDS011;23926;53.222;6.354;2024-01-25T09:22:37;109.45;;;101.38;;
38113;SDS011;23926;53.222;6.354;2024-01-25T09:25:03;105.47;;;98.00;;
38113;SDS011;23926;53.222;6.354;2024-01-25T09:27:29;95.15;;;87.90;;
38113;SDS011;23926;53.222;6.354;2024-01-25T09:29:54;96.78;;;88.78;;
38113;SDS011;23926;53.222;6.354;2024-01-25T09:32:19;100.25;;;92.57;;
38113;SDS011;23926;53.222;6.354;2024-01-25T09:34:45;89.38;;;83.32;;
38113;SDS011;23926;53.222;6.354;2024-01-25T09:37:11;82.72;;;77.30;;
38113;SDS011;23926;53.222;6.354;2024-01-25T09:39:36;80.32;;;74.32;;
38113;SDS011;23926;53.222;6.354;2024-01-25T09:42:02;82.32;;;75.70;;
38113;SDS011;23926;53.222;6.354;2024-01-25T09:44:29;104.40;;;96.47;;
38113;SDS011;23926;53.222;6.354;2024-01-25T09:46:55;110.32;;;98.47;;
38113;SDS011;23926;53.222;6.354;2024-01-25T09:49:21;106.82;;;98.43;;
38113;SDS011;23926;53.222;6.354;2024-01-25T09:51:46;105.88;;;97.35;;
38113;SDS011;23926;53.222;6.354;2024-01-25T09:54:14;100.00;;;91.53;;
38113;SDS011;23926;53.222;6.354;2024-01-25T09:56:41;106.22;;;98.35;;
38113;SDS011;23926;53.222;6.354;2024-01-25T09:59:07;99.22;;;92.30;;
38113;SDS011;23926;53.222;6.354;2024-01-25T10:01:34;100.25;;;89.10;;
38113;SDS011;23926;53.222;6.354;2024-01-25T10:04:00;106.10;;;97.85;;
38113;SDS011;23926;53.222;6.354;2024-01-25T10:06:25;95.35;;;87.97;;
38113;SDS011;23926;53.222;6.354;2024-01-25T10:08:51;97.55;;;89.57;;
38113;SDS011;23926;53.222;6.354;2024-01-25T10:11:17;100.20;;;92.85;;
38113;SDS011;23926;53.222;6.354;2024-01-25T10:13:44;97.07;;;90.00;;
38113;SDS011;23926;53.222;6.354;2024-01-25T10:16:10;142.60;;;133.23;;
38113;SDS011;23926;53.222;6.354;2024-01-25T10:18:40;142.25;;;132.45;;
38113;SDS011;23926;53.222;6.354;2024-01-25T10:21:08;178.23;;;166.35;;
38113;SDS011;23926;53.222;6.354;2024-01-25T10:23:34;156.90;;;146.30;;
38113;SDS011;23926;53.222;6.354;2024-01-25T10:26:00;170.48;;;160.35;;
38113;SDS011;23926;53.222;6.354;2024-01-25T10:28:25;162.88;;;150.23;;
38113;SDS011;23926;53.222;6.354;2024-01-25T10:30:55;158.27;;;147.32;;
38113;SDS011;23926;53.222;6.354;2024-01-25T10:33:21;149.60;;;137.25;;
38113;SDS011;23926;53.222;6.354;2024-01-25T10:35:47;168.88;;;156.23;;
38113;SDS011;23926;53.222;6.354;2024-01-25T10:38:16;143.73;;;132.98;;
38113;SDS011;23926;53.222;6.354;2024-01-25T10:40:43;149.90;;;137.98;;
38113;SDS011;23926;53.222;6.354;2024-01-25T10:43:08;147.80;;;137.45;;
38113;SDS011;23926;53.222;6.354;2024-01-25T10:45:34;147.25;;;136.55;;
38113;SDS011;23926;53.222;6.354;2024-01-25T10:47:59;139.82;;;129.00;;
38113;SDS011;23926;53.222;6.354;2024-01-25T10:50:25;132.50;;;121.93;;
38113;SDS011;23926;53.222;6.354;2024-01-25T10:52:51;109.25;;;101.50;;
38113;SDS011;23926;53.222;6.354;2024-01-25T10:55:17;122.47;;;114.10;;
38113;SDS011;23926;53.222;6.354;2024-01-25T10:57:43;119.45;;;109.68;;
38113;SDS011;23926;53.222;6.354;2024-01-25T11:00:10;106.35;;;97.65;;
38113;SDS011;23926;53.222;6.354;2024-01-25T11:02:38;93.47;;;87.75;;
38113;SDS011;23926;53.222;6.354;2024-01-25T11:05:22;90.65;;;83.10;;
38113;SDS011;23926;53.222;6.354;2024-01-25T11:12:48;79.13;;;72.43;;
38113;SDS011;23926;53.222;6.354;2024-01-25T11:15:34;106.97;;;99.68;;
38113;SDS011;23926;53.222;6.354;2024-01-25T11:18:02;109.70;;;102.38;;
38113;SDS011;23926;53.222;6.354;2024-01-25T11:20:31;94.43;;;88.22;;
38113;SDS011;23926;53.222;6.354;2024-01-25T11:22:59;103.03;;;95.13;;
38113;SDS011;23926;53.222;6.354;2024-01-25T11:25:27;85.47;;;78.75;;
38113;SDS011;23926;53.222;6.354;2024-01-25T11:27:54;53.30;;;48.88;;
38113;SDS011;23926;53.222;6.354;2024-01-25T11:30:20;74.22;;;69.07;;
38113;SDS011;23926;53.222;6.354;2024-01-25T11:32:46;77.10;;;72.13;;
38113;SDS011;23926;53.222;6.354;2024-01-25T11:35:15;70.43;;;65.40;;
38113;SDS011;23926;53.222;6.354;2024-01-25T11:37:45;59.72;;;53.90;;
38113;SDS011;23926;53.222;6.354;2024-01-25T11:40:11;47.50;;;43.75;;
38113;SDS011;23926;53.222;6.354;2024-01-25T11:42:38;49.13;;;44.83;;
38113;SDS011;23926;53.222;6.354;2024-01-25T11:45:05;66.95;;;61.28;;
38113;SDS011;23926;53.222;6.354;2024-01-25T11:47:32;58.40;;;52.58;;
38113;SDS011;23926;53.222;6.354;2024-01-25T11:49:58;57.85;;;52.25;;
38113;SDS011;23926;53.222;6.354;2024-01-25T11:52:23;59.47;;;54.63;;
38113;SDS011;23926;53.222;6.354;2024-01-25T11:54:51;61.17;;;56.50;;
38113;SDS011;23926;53.222;6.354;2024-01-25T11:57:16;33.88;;;28.25;;
38113;SDS011;23926;53.222;6.354;2024-01-25T11:59:42;44.53;;;41.08;;
38113;SDS011;23926;53.222;6.354;2024-01-25T12:02:10;47.47;;;26.75;;
38113;SDS011;23926;53.222;6.354;2024-01-25T12:04:37;30.30;;;21.10;;
38113;SDS011;23926;53.222;6.354;2024-01-25T12:07:02;36.97;;;26.50;;
38113;SDS011;23926;53.222;6.354;2024-01-25T12:09:28;26.50;;;22.30;;
38113;SDS011;23926;53.222;6.354;2024-01-25T12:11:53;34.53;;;28.55;;
38113;SDS011;23926;53.222;6.354;2024-01-25T12:14:20;29.65;;;21.33;;
38113;SDS011;23926;53.222;6.354;2024-01-25T12:16:45;30.73;;;24.23;;
38113;SDS011;23926;53.222;6.354;2024-01-25T12:19:11;39.30;;;35.33;;
38113;SDS011;23926;53.222;6.354;2024-01-25T12:21:36;32.88;;;17.67;;
38113;SDS011;23926;53.222;6.354;2024-01-25T12:24:02;22.55;;;15.38;;
38113;SDS011;23926;53.222;6.354;2024-01-25T12:26:27;19.80;;;10.95;;
38113;SDS011;23926;53.222;6.354;2024-01-25T12:28:53;36.58;;;10.20;;
38113;SDS011;23926;53.222;6.354;2024-01-25T12:31:18;21.23;;;8.02;;
38113;SDS011;23926;53.222;6.354;2024-01-25T12:33:44;22.45;;;11.70;;
38113;SDS011;23926;53.222;6.354;2024-01-25T12:36:09;21.90;;;10.68;;
38113;SDS011;23926;53.222;6.354;2024-01-25T12:38:34;25.27;;;8.48;;
38113;SDS011;23926;53.222;6.354;2024-01-25T12:41:00;19.02;;;8.85;;
38113;SDS011;23926;53.222;6.354;2024-01-25T12:43:26;27.70;;;11.48;;
38113;SDS011;23926;53.222;6.354;2024-01-25T12:45:52;24.38;;;7.93;;
38113;SDS011;23926;53.222;6.354;2024-01-25T12:48:17;20.05;;;8.45;;
38113;SDS011;23926;53.222;6.354;2024-01-25T12:50:43;15.60;;;8.07;;
38113;SDS011;23926;53.222;6.354;2024-01-25T12:53:09;22.80;;;8.77;;
38113;SDS011;23926;53.222;6.354;2024-01-25T12:55:35;12.75;;;8.07;;
38113;SDS011;23926;53.222;6.354;2024-01-25T12:58:01;18.38;;;6.20;;
38113;SDS011;23926;53.222;6.354;2024-01-25T13:00:26;30.40;;;8.77;;
38113;SDS011;23926;53.222;6.354;2024-01-25T13:02:52;18.02;;;8.52;;
38113;SDS011;23926;53.222;6.354;2024-01-25T13:05:19;20.65;;;6.75;;
38113;SDS011;23926;53.222;6.354;2024-01-25T13:07:44;38.15;;;7.55;;
38113;SDS011;23926;53.222;6.354;2024-01-25T13:10:10;29.15;;;7.90;;
38113;SDS011;23926;53.222;6.354;2024-01-25T13:12:36;21.63;;;7.03;;
38113;SDS011;23926;53.222;6.354;2024-01-25T13:15:02;19.75;;;7.05;;
38113;SDS011;23926;53.222;6.354;2024-01-25T13:17:28;21.90;;;7.68;;
38113;SDS011;23926;53.222;6.354;2024-01-25T13:19:53;18.10;;;6.65;;
38113;SDS011;23926;53.222;6.354;2024-01-25T13:22:19;18.77;;;7.85;;
38113;SDS011;23926;53.222;6.354;2024-01-25T13:24:46;26.67;;;10.30;;
38113;SDS011;23926;53.222;6.354;2024-01-25T13:27:11;28.00;;;9.63;;
38113;SDS011;23926;53.222;6.354;2024-01-25T13:29:37;14.93;;;5.82;;
38113;SDS011;23926;53.222;6.354;2024-01-25T13:32:02;13.82;;;6.32;;
38113;SDS011;23926;53.222;6.354;2024-01-25T13:34:28;20.92;;;7.32;;
38113;SDS011;23926;53.222;6.354;2024-01-25T13:36:53;24.30;;;6.55;;
38113;SDS011;23926;53.222;6.354;2024-01-25T13:39:19;12.10;;;5.88;;
38113;SDS011;23926;53.222;6.354;2024-01-25T13:41:44;22.95;;;6.53;;
38113;SDS011;23926;53.222;6.354;2024-01-25T13:44:11;16.27;;;5.50;;
38113;SDS011;23926;53.222;6.354;2024-01-25T13:46:38;15.73;;;6.15;;
38113;SDS011;23926;53.222;6.354;2024-01-25T13:49:04;15.38;;;6.28;;
38113;SDS011;23926;53.222;6.354;2024-01-25T13:51:29;19.80;;;5.88;;
38113;SDS011;23926;53.222;6.354;2024-01-25T13:53:54;9.85;;;5.22;;
38113;SDS011;23926;53.222;6.354;2024-01-25T13:56:20;14.48;;;5.85;;
38113;SDS011;23926;53.222;6.354;2024-01-25T13:58:45;21.27;;;7.50;;
38113;SDS011;23926;53.222;6.354;2024-01-25T14:01:11;18.85;;;4.97;;
38113;SDS011;23926;53.222;6.354;2024-01-25T14:03:36;19.42;;;6.25;;
38113;SDS011;23926;53.222;6.354;2024-01-25T14:06:02;24.98;;;6.45;;
38113;SDS011;23926;53.222;6.354;2024-01-25T14:08:29;16.95;;;6.65;;
38113;SDS011;23926;53.222;6.354;2024-01-25T14:10:56;10.45;;;5.15;;
38113;SDS011;23926;53.222;6.354;2024-01-25T14:13:21;18.52;;;5.75;;
38113;SDS011;23926;53.222;6.354;2024-01-25T14:15:46;14.93;;;5.53;;
38113;SDS011;23926;53.222;6.354;2024-01-25T14:18:12;13.00;;;4.82;;
38113;SDS011;23926;53.222;6.354;2024-01-25T14:20:37;19.17;;;4.88;;